createdAt,value
2023-03-26T00:00:15.133Z,6.56
2023-03-26T00:03:05.143Z,6.43
2023-03-26T00:05:34.507Z,6.51
2023-03-26T00:08:04.076Z,6.56
2023-03-26T00:10:33.321Z,6.33
2023-03-26T00:13:02.879Z,6.44
2023-03-26T00:15:34.493Z,6.45
2023-03-26T00:18:05.923Z,6.50
2023-03-26T00:20:35.242Z,6.48
2023-03-26T00:23:04.768Z,6.59
2023-03-26T00:25:34.980Z,6.53
2023-03-26T00:28:06.260Z,6.56
2023-03-26T00:30:37.462Z,6.64
2023-03-26T00:33:07.810Z,6.55
2023-03-26T00:35:38.454Z,6.54
2023-03-26T00:38:08.022Z,6.67
2023-03-26T00:40:37.362Z,6.59
2023-03-26T00:43:19.459Z,6.68
2023-03-26T00:45:53.479Z,6.53
2023-03-26T00:48:31.612Z,6.44
2023-03-26T00:51:13.036Z,6.44
2023-03-26T00:53:42.778Z,6.64
2023-03-26T00:56:13.674Z,6.72
2023-03-26T00:58:43.569Z,6.49
2023-03-26T01:01:17.243Z,6.56
2023-03-26T01:04:04.837Z,6.56
2023-03-26T01:06:38.778Z,6.44
2023-03-26T01:09:16.017Z,6.37
2023-03-26T01:11:46.155Z,6.37
2023-03-26T01:14:19.660Z,6.37
2023-03-26T01:16:53.112Z,6.45
2023-03-26T01:19:29.337Z,6.28
2023-03-26T01:22:00.692Z,6.41
2023-03-26T01:24:31.941Z,6.38
2023-03-26T01:27:17.894Z,6.59
2023-03-26T01:29:54.361Z,6.61
2023-03-26T01:32:47.686Z,6.63
2023-03-26T01:35:30.611Z,6.69
2023-03-26T01:38:18.610Z,6.69
2023-03-26T01:41:00.260Z,6.71
2023-03-26T01:43:36.266Z,6.70
2023-03-26T01:46:09.214Z,6.67
2023-03-26T01:48:41.359Z,6.68
2023-03-26T01:51:12.906Z,6.39
2023-03-26T01:53:45.213Z,6.57
2023-03-26T01:56:26.906Z,6.55
2023-03-26T01:59:11.258Z,6.39
2023-03-26T02:01:48.423Z,6.47
2023-03-26T02:04:26.450Z,6.42
2023-03-26T02:07:05.904Z,6.54
2023-03-26T02:09:45.829Z,6.64
2023-03-26T02:12:17.402Z,6.54
2023-03-26T02:14:46.954Z,6.61
2023-03-26T02:17:16.908Z,6.69
2023-03-26T02:19:46.132Z,6.75
2023-03-26T02:22:16.326Z,6.60
2023-03-26T02:24:47.447Z,6.74
2023-03-26T02:27:18.831Z,6.69
2023-03-26T02:29:50.423Z,6.77
2023-03-26T02:32:23.494Z,6.81
2023-03-26T02:34:52.782Z,6.83
2023-03-26T02:37:22.263Z,6.76
2023-03-26T02:39:56.702Z,6.74
2023-03-26T02:42:33.776Z,6.85
2023-03-26T02:45:03.096Z,6.79
2023-03-26T02:47:38.678Z,6.85
2023-03-26T02:50:36.862Z,6.80
2023-03-26T02:53:29.918Z,6.78
2023-03-26T02:56:17.878Z,6.74
2023-03-26T02:59:02.864Z,6.72
2023-03-26T03:01:35.193Z,6.83
2023-03-26T03:04:05.757Z,6.87
2023-03-26T03:06:40.602Z,6.75
2023-03-26T03:09:10.549Z,6.76
2023-03-26T03:11:41.097Z,6.69
2023-03-26T03:14:12.381Z,6.66
2023-03-26T03:16:41.691Z,6.74
2023-03-26T03:19:13.245Z,6.67
2023-03-26T03:21:43.399Z,6.76
2023-03-26T03:24:13.962Z,6.85
2023-03-26T03:26:48.042Z,6.79
2023-03-26T03:29:39.320Z,6.87
2023-03-26T03:32:29.063Z,6.92
2023-03-26T03:35:03.462Z,6.92
2023-03-26T03:37:32.845Z,6.96
2023-03-26T03:40:05.890Z,6.76
2023-03-26T03:42:37.011Z,6.86
2023-03-26T03:45:10.622Z,6.80
2023-03-26T03:47:58.604Z,6.74
2023-03-26T03:50:36.152Z,6.67
2023-03-26T03:53:22.058Z,6.69
2023-03-26T03:55:55.190Z,6.59
2023-03-26T03:58:31.183Z,6.62
2023-03-26T04:01:11.200Z,6.85
2023-03-26T04:03:55.847Z,6.89
2023-03-26T04:06:30.317Z,6.92
2023-03-26T04:08:59.350Z,6.89
2023-03-26T04:11:29.112Z,6.78
2023-03-26T04:14:18.364Z,6.71
2023-03-26T04:17:09.644Z,6.78
2023-03-26T04:19:40.723Z,6.90
2023-03-26T04:22:12.120Z,6.94
2023-03-26T04:24:54.640Z,6.94
2023-03-26T04:27:30.322Z,6.93
2023-03-26T04:30:15.149Z,6.91
2023-03-26T04:32:47.424Z,6.92
2023-03-26T04:35:19.610Z,6.97
2023-03-26T04:37:55.173Z,6.88
2023-03-26T04:40:34.831Z,6.96
2023-03-26T04:43:16.399Z,7.02
2023-03-26T04:46:04.924Z,6.86
2023-03-26T04:48:42.188Z,6.90
2023-03-26T04:51:18.066Z,6.93
2023-03-26T04:53:53.226Z,7.00
2023-03-26T04:56:39.735Z,6.96
2023-03-26T04:59:26.660Z,7.03
2023-03-26T05:01:58.138Z,6.86
2023-03-26T05:04:30.998Z,6.86
2023-03-26T05:07:01.311Z,6.91
2023-03-26T05:09:39.746Z,6.96
2023-03-26T05:12:18.009Z,6.98
2023-03-26T05:15:02.311Z,7.06
2023-03-26T05:17:50.067Z,6.95
2023-03-26T05:20:32.575Z,6.89
2023-03-26T05:23:02.246Z,6.97
2023-03-26T05:25:34.928Z,6.96
2023-03-26T05:28:06.394Z,6.91
2023-03-26T05:30:46.995Z,7.07
2023-03-26T05:33:16.538Z,7.05
2023-03-26T05:36:02.854Z,7.01
2023-03-26T05:38:34.419Z,7.15
2023-03-26T05:41:07.535Z,7.16
2023-03-26T05:43:38.908Z,7.20
2023-03-26T05:46:12.997Z,7.18
2023-03-26T05:48:42.377Z,7.11
2023-03-26T05:51:15.618Z,7.11
2023-03-26T05:53:51.880Z,7.10
2023-03-26T05:56:27.850Z,7.05
2023-03-26T05:59:03.199Z,6.99
2023-03-26T06:01:54.629Z,7.02
2023-03-26T06:04:46.450Z,7.10
2023-03-26T06:07:23.073Z,7.14
2023-03-26T06:10:14.574Z,7.17
2023-03-26T06:12:49.716Z,7.07
2023-03-26T06:15:19.755Z,7.09
2023-03-26T06:18:02.409Z,6.98
2023-03-26T06:20:52.443Z,7.12
2023-03-26T06:23:43.827Z,7.17
2023-03-26T06:26:33.400Z,7.11
2023-03-26T06:29:36.933Z,7.21
2023-03-26T06:32:22.755Z,7.18
2023-03-26T06:34:59.142Z,7.23
2023-03-26T06:37:28.400Z,7.27
2023-03-26T06:40:06.373Z,7.21
2023-03-26T06:43:10.958Z,7.19
2023-03-26T06:45:52.903Z,7.31
2023-03-26T06:48:40.989Z,7.28
2023-03-26T06:51:23.904Z,7.13
2023-03-26T06:54:12.057Z,7.17
2023-03-26T06:56:54.158Z,7.16
2023-03-26T06:59:58.839Z,7.05
2023-03-26T07:02:47.772Z,7.07
2023-03-26T07:05:38.004Z,7.17
2023-03-26T07:08:26.554Z,7.18
2023-03-26T07:11:34.493Z,7.19
2023-03-26T07:14:24.577Z,7.23
2023-03-26T07:17:26.811Z,7.22
2023-03-26T07:20:13.903Z,7.35
2023-03-26T07:22:45.092Z,7.33
2023-03-26T07:25:21.315Z,7.12
2023-03-26T07:28:01.045Z,7.30
2023-03-26T07:30:54.945Z,7.30
2023-03-26T07:33:55.072Z,7.32
2023-03-26T07:36:58.534Z,7.45
2023-03-26T07:39:47.777Z,7.55
2023-03-26T07:42:54.158Z,7.43
2023-03-26T07:45:46.036Z,7.32
2023-03-26T07:48:25.451Z,7.49
2023-03-26T07:51:14.070Z,7.55
2023-03-26T07:54:07.798Z,7.61
2023-03-26T07:56:50.142Z,7.65
2023-03-26T07:59:49.078Z,7.68
2023-03-26T08:03:15.204Z,7.63
2023-03-26T08:06:24.734Z,7.59
2023-03-26T08:09:10.204Z,7.56
2023-03-26T08:12:22.990Z,7.46
2023-03-26T08:14:58.932Z,7.61
2023-03-26T08:17:36.073Z,7.58
2023-03-26T08:20:16.932Z,7.55
2023-03-26T08:22:51.984Z,7.59
2023-03-26T08:25:29.737Z,7.59
2023-03-26T08:28:11.980Z,7.61
2023-03-26T08:30:41.588Z,7.69
2023-03-26T08:33:17.932Z,7.60
2023-03-26T08:35:49.998Z,7.59
2023-03-26T08:38:21.265Z,7.59
2023-03-26T08:41:29.292Z,7.60
2023-03-26T08:44:48.958Z,7.67
2023-03-26T08:47:47.921Z,7.64
2023-03-26T08:50:45.847Z,7.76
2023-03-26T08:53:48.642Z,7.71
2023-03-26T08:56:26.022Z,7.85
2023-03-26T08:59:29.926Z,7.89
2023-03-26T09:02:34.361Z,7.97
2023-03-26T09:05:42.959Z,8.07
2023-03-26T09:09:00.352Z,8.29
2023-03-26T09:11:56.056Z,8.27
2023-03-26T09:14:48.888Z,8.41
2023-03-26T09:17:57.743Z,8.50
2023-03-26T09:21:04.948Z,8.57
2023-03-26T09:24:06.342Z,8.64
2023-03-26T09:26:51.449Z,8.62
2023-03-26T09:30:09.817Z,8.66
2023-03-26T09:33:09.922Z,8.51
2023-03-26T09:36:05.772Z,8.52
2023-03-26T09:38:46.273Z,8.59
2023-03-26T09:41:22.231Z,8.61
2023-03-26T09:44:13.031Z,8.63
2023-03-26T09:46:57.506Z,8.71
2023-03-26T09:49:48.886Z,8.71
2023-03-26T09:52:52.053Z,8.80
2023-03-26T09:55:43.566Z,8.82
2023-03-26T09:58:40.863Z,8.81
2023-03-26T10:01:18.223Z,8.86
2023-03-26T10:04:01.098Z,8.90
2023-03-26T10:06:55.548Z,8.86
2023-03-26T10:09:48.474Z,8.84
2023-03-26T10:12:33.663Z,8.95
2023-03-26T10:15:25.089Z,8.98
2023-03-26T10:18:27.487Z,8.93
2023-03-26T10:21:02.879Z,8.82
2023-03-26T10:23:49.959Z,8.82
2023-03-26T10:27:08.935Z,8.82
2023-03-26T10:30:14.867Z,8.91
2023-03-26T10:32:54.921Z,9.01
2023-03-26T10:35:28.853Z,9.10
2023-03-26T10:38:15.489Z,9.25
2023-03-26T10:40:56.880Z,9.40
2023-03-26T10:44:05.294Z,9.61
2023-03-26T10:47:10.973Z,9.84
2023-03-26T10:50:04.338Z,10.01
2023-03-26T10:52:40.216Z,10.20
2023-03-26T10:55:19.679Z,10.24
2023-03-26T10:57:54.094Z,10.40
2023-03-26T11:00:26.305Z,10.52
2023-03-26T11:03:28.225Z,10.65
2023-03-26T11:06:12.504Z,10.72
2023-03-26T11:08:49.844Z,10.75
2023-03-26T11:11:27.381Z,10.86
2023-03-26T11:14:03.691Z,11.00
2023-03-26T11:16:42.766Z,11.07
2023-03-26T11:19:21.945Z,11.14
2023-03-26T11:22:02.601Z,11.21
2023-03-26T11:25:05.135Z,11.17
2023-03-26T11:27:50.358Z,11.02
2023-03-26T11:30:34.466Z,11.06
2023-03-26T11:33:09.013Z,11.03
2023-03-26T11:35:41.929Z,11.04
2023-03-26T11:38:21.619Z,11.07
2023-03-26T11:40:55.909Z,11.19
2023-03-26T11:44:04.114Z,11.37
2023-03-26T11:46:37.559Z,11.58
2023-03-26T11:49:12.075Z,11.74
2023-03-26T11:51:43.252Z,11.79
2023-03-26T11:54:14.996Z,11.73
2023-03-26T11:57:05.434Z,11.59
2023-03-26T11:59:53.172Z,11.23
2023-03-26T12:02:32.619Z,11.12
2023-03-26T12:05:19.455Z,11.00
2023-03-26T12:07:54.561Z,10.78
2023-03-26T12:10:32.277Z,10.77
2023-03-26T12:13:08.482Z,10.46
2023-03-26T12:15:46.849Z,10.13
2023-03-26T12:18:27.045Z,10.17
2023-03-26T12:21:09.088Z,10.11
2023-03-26T12:23:51.867Z,9.56
2023-03-26T12:26:22.776Z,9.71
2023-03-26T12:28:52.982Z,9.87
2023-03-26T12:31:26.619Z,9.69
2023-03-26T12:34:08.441Z,9.79
2023-03-26T12:36:39.289Z,9.40
2023-03-26T12:40:09.142Z,9.27
2023-03-26T12:44:48.635Z,9.26
2023-03-26T12:45:24.153Z,9.05
2023-03-26T12:48:03.873Z,8.99
2023-03-26T12:50:53.075Z,9.13
2023-03-26T12:53:49.206Z,9.25
2023-03-26T12:56:36.475Z,9.77
2023-03-26T12:59:27.131Z,10.07
2023-03-26T13:02:16.094Z,10.06
2023-03-26T13:05:06.022Z,10.01
2023-03-26T13:07:59.774Z,9.86
2023-03-26T13:10:50.331Z,9.61
2023-03-26T13:13:40.870Z,9.42
2023-03-26T13:16:17.959Z,9.25
2023-03-26T13:18:54.588Z,9.33
2023-03-26T13:21:37.132Z,9.58
2023-03-26T13:24:17.378Z,9.68
2023-03-26T13:27:01.987Z,9.52
2023-03-26T13:29:42.569Z,9.45
2023-03-26T13:32:19.607Z,9.47
2023-03-26T13:35:05.398Z,9.39
2023-03-26T13:37:43.253Z,9.40
2023-03-26T13:40:26.076Z,9.35
2023-03-26T13:43:11.946Z,9.54
2023-03-26T13:45:52.001Z,9.65
2023-03-26T13:48:25.745Z,9.65
2023-03-26T13:51:05.170Z,9.59
2023-03-26T13:53:42.080Z,9.59
2023-03-26T13:56:15.990Z,9.73
2023-03-26T13:58:51.380Z,9.87
2023-03-26T14:01:23.834Z,10.02
2023-03-26T14:03:59.633Z,10.21
2023-03-26T14:06:42.358Z,10.41
2023-03-26T14:09:21.856Z,10.55
2023-03-26T14:12:02.328Z,10.69
2023-03-26T14:14:40.252Z,10.74
2023-03-26T14:17:18.508Z,10.85
2023-03-26T14:20:15.012Z,10.91
2023-03-26T14:22:55.673Z,11.07
2023-03-26T14:25:31.491Z,11.13
2023-03-26T14:28:15.854Z,11.28
2023-03-26T14:31:01.253Z,11.36
2023-03-26T14:33:59.705Z,11.29
2023-03-26T14:36:59.150Z,11.02
2023-03-26T14:40:00.815Z,11.01
2023-03-26T14:42:42.619Z,10.69
2023-03-26T14:45:43.547Z,10.73
2023-03-26T14:48:46.667Z,10.39
2023-03-26T14:51:41.509Z,10.14
2023-03-26T14:54:14.431Z,9.98
2023-03-26T14:57:38.293Z,9.76
2023-03-26T15:00:40.809Z,9.79
2023-03-26T15:03:52.611Z,9.45
2023-03-26T15:07:03.499Z,9.54
2023-03-26T15:10:09.400Z,9.51
2023-03-26T15:12:57.219Z,9.54
2023-03-26T15:16:05.433Z,9.28
2023-03-26T15:19:11.957Z,9.16
2023-03-26T15:22:12.940Z,9.17
2023-03-26T15:25:21.976Z,9.10
2023-03-26T15:28:14.761Z,9.21
2023-03-26T15:31:47.692Z,8.99
2023-03-26T15:35:02.713Z,9.02
2023-03-26T15:38:10.199Z,8.83
2023-03-26T15:40:58.732Z,8.57
2023-03-26T15:43:58.223Z,8.73
2023-03-26T15:47:03.244Z,8.78
2023-03-26T15:49:44.803Z,8.62
2023-03-26T15:52:27.125Z,8.56
2023-03-26T15:55:06.322Z,8.54
2023-03-26T15:57:41.173Z,7.88
2023-03-26T16:00:25.077Z,7.90
2023-03-26T16:03:17.726Z,7.94
2023-03-26T16:06:31.038Z,7.94
2023-03-26T16:09:14.900Z,7.72
2023-03-26T16:11:56.288Z,7.65
2023-03-26T16:14:42.432Z,7.66
2023-03-26T16:17:17.886Z,7.40
2023-03-26T16:20:15.185Z,7.42
2023-03-26T16:22:57.311Z,7.27
2023-03-26T16:25:30.982Z,7.00
2023-03-26T16:28:35.915Z,7.14
2023-03-26T16:31:38.239Z,7.20
2023-03-26T16:34:30.274Z,6.89
2023-03-26T16:37:01.700Z,6.95
2023-03-26T16:39:42.515Z,6.77
2023-03-26T16:42:34.300Z,6.59
2023-03-26T16:45:19.370Z,6.53
2023-03-26T16:47:59.100Z,6.26
2023-03-26T16:50:42.291Z,6.27
2023-03-26T16:53:30.782Z,6.24
2023-03-26T16:56:05.008Z,6.22
2023-03-26T16:58:45.036Z,6.07
2023-03-26T17:01:27.404Z,6.10
2023-03-26T17:04:01.849Z,6.16
2023-03-26T17:07:05.905Z,6.05
2023-03-26T17:09:46.676Z,6.16
2023-03-26T17:12:23.962Z,6.00
2023-03-26T17:15:07.609Z,5.85
2023-03-26T17:17:51.471Z,5.94
2023-03-26T17:20:33.360Z,5.61
2023-03-26T17:23:19.039Z,5.56
2023-03-26T17:26:02.068Z,5.48
2023-03-26T17:28:50.532Z,5.38
2023-03-26T17:31:31.409Z,5.44
2023-03-26T17:34:48.607Z,5.45
2023-03-26T17:37:48.110Z,5.46
2023-03-26T17:40:46.990Z,5.06
2023-03-26T17:43:44.139Z,4.85
2023-03-26T17:46:33.496Z,4.62
2023-03-26T17:49:09.915Z,4.71
2023-03-26T17:51:49.141Z,4.57
2023-03-26T17:54:27.496Z,4.68
2023-03-26T17:57:02.544Z,4.73
2023-03-26T17:59:38.129Z,4.60
2023-03-26T18:02:17.317Z,4.62
2023-03-26T18:04:50.031Z,4.61
2023-03-26T18:08:02.709Z,4.62
2023-03-26T18:11:04.556Z,4.69
2023-03-26T18:14:19.194Z,4.73
2023-03-26T18:16:53.456Z,4.61
2023-03-26T18:19:25.936Z,4.73
2023-03-26T18:21:58.189Z,4.66
2023-03-26T18:24:30.549Z,4.41
2023-03-26T18:27:06.216Z,4.55
2023-03-26T18:29:39.145Z,4.47
2023-03-26T18:32:22.745Z,4.40
2023-03-26T18:34:58.480Z,4.39
2023-03-26T18:37:30.119Z,4.31
2023-03-26T18:40:11.653Z,4.35
2023-03-26T18:42:46.810Z,4.21
2023-03-26T18:45:26.857Z,4.41
2023-03-26T18:47:59.641Z,4.33
2023-03-26T18:50:34.991Z,4.33
2023-03-26T18:53:08.147Z,4.43
2023-03-26T18:55:39.780Z,4.30
2023-03-26T18:58:25.224Z,4.19
2023-03-26T19:00:57.635Z,4.05
2023-03-26T19:03:28.687Z,4.15
2023-03-26T19:05:59.295Z,4.27
2023-03-26T19:08:30.444Z,4.44
2023-03-26T19:11:02.273Z,4.30
2023-03-26T19:13:35.205Z,4.15
2023-03-26T19:16:08.851Z,4.36
2023-03-26T19:18:41.226Z,4.22
2023-03-26T19:21:18.167Z,4.22
2023-03-26T19:23:48.852Z,4.28
2023-03-26T19:26:19.139Z,4.33
2023-03-26T19:28:53.474Z,4.31
2023-03-26T19:31:26.212Z,4.50
2023-03-26T19:33:59.033Z,4.21
2023-03-26T19:36:31.816Z,4.29
2023-03-26T19:39:17.454Z,4.38
2023-03-26T19:41:54.898Z,4.34
2023-03-26T19:44:28.728Z,4.33
2023-03-26T19:47:05.172Z,4.25
2023-03-26T19:49:43.202Z,4.27
2023-03-26T19:52:16.306Z,4.40
2023-03-26T19:54:59.684Z,4.42
2023-03-26T19:57:32.153Z,4.35
2023-03-26T20:00:05.205Z,4.45
2023-03-26T20:02:35.409Z,4.44
2023-03-26T20:05:05.332Z,4.44
2023-03-26T20:07:36.437Z,4.51
2023-03-26T20:10:08.202Z,4.58
2023-03-26T20:12:37.486Z,4.54
2023-03-26T20:15:19.533Z,4.47
2023-03-26T20:17:50.303Z,4.55
2023-03-26T20:20:20.413Z,4.49
2023-03-26T20:22:49.792Z,4.45
2023-03-26T20:25:21.851Z,4.48
2023-03-26T20:27:53.096Z,4.58
2023-03-26T20:30:36.839Z,4.50
2023-03-26T20:33:12.752Z,4.52
2023-03-26T20:35:44.955Z,4.57
2023-03-26T20:38:14.500Z,4.63
2023-03-26T20:40:44.914Z,4.59
2023-03-26T20:43:15.670Z,4.30
2023-03-26T20:45:46.993Z,4.32
2023-03-26T20:48:16.387Z,4.41
2023-03-26T20:50:50.617Z,4.48
2023-03-26T20:53:20.500Z,4.16
2023-03-26T20:55:51.550Z,4.39
2023-03-26T20:58:31.367Z,4.40
2023-03-26T21:01:03.808Z,4.06
2023-03-26T21:03:33.385Z,4.03
2023-03-26T21:06:03.788Z,3.98
2023-03-26T21:08:36.875Z,4.18
2023-03-26T21:11:16.641Z,4.29
2023-03-26T21:14:02.263Z,4.27
2023-03-26T21:16:34.000Z,4.27
2023-03-26T21:19:04.565Z,4.23
2023-03-26T21:21:47.973Z,4.25
2023-03-26T21:24:29.718Z,4.24
2023-03-26T21:27:09.015Z,4.09
2023-03-26T21:29:38.810Z,3.89
2023-03-26T21:32:12.257Z,4.03
2023-03-26T21:34:55.724Z,4.08
2023-03-26T21:37:28.185Z,4.09
2023-03-26T21:39:57.929Z,4.05
2023-03-26T21:42:29.484Z,4.05
2023-03-26T21:44:59.373Z,4.01
2023-03-26T21:47:31.064Z,3.99
2023-03-26T21:50:00.864Z,3.98
2023-03-26T21:52:31.930Z,3.97
2023-03-26T21:55:03.788Z,3.97
2023-03-26T21:57:48.534Z,4.00
2023-03-26T22:00:20.735Z,3.87
2023-03-26T22:03:08.406Z,4.02
2023-03-26T22:05:43.435Z,4.02
2023-03-26T22:08:23.082Z,3.99
2023-03-26T22:10:52.381Z,3.84
2023-03-26T22:13:21.872Z,3.97
2023-03-26T22:15:51.171Z,3.99
2023-03-26T22:18:24.555Z,4.17
2023-03-26T22:20:54.647Z,4.07
2023-03-26T22:23:24.891Z,4.24
2023-03-26T22:25:54.071Z,4.36
2023-03-26T22:28:23.594Z,4.39
2023-03-26T22:30:53.051Z,4.32
2023-03-26T22:33:24.124Z,4.01
2023-03-26T22:35:54.092Z,4.13
2023-03-26T22:38:23.736Z,3.90
2023-03-26T22:40:57.515Z,4.04
2023-03-26T22:43:27.778Z,3.90
2023-03-26T22:45:57.272Z,4.08
2023-03-26T22:48:28.438Z,4.14
2023-03-26T22:51:02.753Z,4.06
2023-03-26T22:53:32.901Z,4.10
2023-03-26T22:56:02.990Z,3.99
2023-03-26T22:58:34.083Z,3.98
2023-03-26T23:01:07.968Z,3.86
2023-03-26T23:03:39.669Z,3.72
2023-03-26T23:06:12.033Z,3.60
2023-03-26T23:08:42.176Z,3.82
2023-03-26T23:11:13.674Z,3.75
2023-03-26T23:13:44.394Z,3.74
2023-03-26T23:16:15.251Z,3.71
2023-03-26T23:18:46.685Z,3.78
2023-03-26T23:21:18.433Z,3.90
2023-03-26T23:23:49.328Z,3.96
2023-03-26T23:26:18.704Z,3.98
2023-03-26T23:28:48.565Z,3.96
2023-03-26T23:31:18.377Z,3.93
2023-03-26T23:33:50.525Z,3.81
2023-03-26T23:36:23.722Z,3.86
2023-03-26T23:38:53.865Z,3.90
2023-03-26T23:41:25.416Z,3.93
2023-03-26T23:43:55.707Z,3.98
2023-03-26T23:46:31.085Z,3.89
2023-03-26T23:49:03.889Z,3.88
2023-03-26T23:51:36.092Z,3.98
2023-03-26T23:54:06.774Z,3.99
2023-03-26T23:56:36.107Z,3.81
2023-03-26T23:59:06.157Z,3.76
